sensor_id;sensor_type;location;lat;lon;timestamp;temperature;humidity
22503;DHT22;11418;48.118;9.992;2023-04-09T00:03:31;3.50;99.90
22503;DHT22;11418;48.118;9.992;2023-04-09T00:07:32;3.50;99.90
22503;DHT22;11418;48.118;9.992;2023-04-09T00:11:32;3.60;99.90
22503;DHT22;11418;48.118;9.992;2023-04-09T00:15:33;3.60;99.90
22503;DHT22;11418;48.118;9.992;2023-04-09T00:19:33;3.60;99.90
22503;DHT22;11418;48.118;9.992;2023-04-09T00:23:34;3.80;99.90
22503;DHT22;11418;48.118;9.992;2023-04-09T00:27:35;3.90;99.90
22503;DHT22;11418;48.118;9.992;2023-04-09T00:31:35;4.20;99.90
22503;DHT22;11418;48.118;9.992;2023-04-09T00:35:36;4.40;99.90
22503;DHT22;11418;48.118;9.992;2023-04-09T00:39:36;4.70;99.90
22503;DHT22;11418;48.118;9.992;2023-04-09T00:43:37;4.40;99.90
22503;DHT22;11418;48.118;9.992;2023-04-09T00:47:37;4.30;99.90
22503;DHT22;11418;48.118;9.992;2023-04-09T00:51:38;4.10;99.90
22503;DHT22;11418;48.118;9.992;2023-04-09T00:55:39;4.00;99.90
22503;DHT22;11418;48.118;9.992;2023-04-09T00:59:41;4.00;99.90
22503;DHT22;11418;48.118;9.992;2023-04-09T01:03:41;3.70;99.90
22503;DHT22;11418;48.118;9.992;2023-04-09T01:16:02;3.80;99.90
22503;DHT22;11418;48.118;9.992;2023-04-09T01:20:10;3.60;99.90
22503;DHT22;11418;48.118;9.992;2023-04-09T01:28:16;3.80;99.90
22503;DHT22;11418;48.118;9.992;2023-04-09T01:32:17;3.50;99.90
22503;DHT22;11418;48.118;9.992;2023-04-09T01:36:18;3.40;99.90
22503;DHT22;11418;48.118;9.992;2023-04-09T01:40:20;3.40;99.90
22503;DHT22;11418;48.118;9.992;2023-04-09T01:44:20;3.40;99.90
22503;DHT22;11418;48.118;9.992;2023-04-09T01:48:22;4.00;99.90
22503;DHT22;11418;48.118;9.992;2023-04-09T01:52:23;3.80;99.90
22503;DHT22;11418;48.118;9.992;2023-04-09T01:56:24;3.50;99.90
22503;DHT22;11418;48.118;9.992;2023-04-09T02:00:26;3.30;99.90
22503;DHT22;11418;48.118;9.992;2023-04-09T02:04:33;3.60;99.90
22503;DHT22;11418;48.118;9.992;2023-04-09T02:08:34;3.40;99.90
22503;DHT22;11418;48.118;9.992;2023-04-09T02:12:36;3.50;99.90
22503;DHT22;11418;48.118;9.992;2023-04-09T02:16:37;3.30;99.90
22503;DHT22;11418;48.118;9.992;2023-04-09T02:20:38;3.20;99.90
22503;DHT22;11418;48.118;9.992;2023-04-09T02:24:38;3.10;99.90
22503;DHT22;11418;48.118;9.992;2023-04-09T02:28:42;3.10;99.90
22503;DHT22;11418;48.118;9.992;2023-04-09T02:32:42;3.60;99.90
22503;DHT22;11418;48.118;9.992;2023-04-09T02:36:43;3.30;99.90
22503;DHT22;11418;48.118;9.992;2023-04-09T02:40:43;3.30;99.90
22503;DHT22;11418;48.118;9.992;2023-04-09T02:44:44;3.40;99.90
22503;DHT22;11418;48.118;9.992;2023-04-09T02:48:44;3.20;99.90
22503;DHT22;11418;48.118;9.992;2023-04-09T02:52:45;3.00;99.90
22503;DHT22;11418;48.118;9.992;2023-04-09T02:56:46;3.40;99.90
22503;DHT22;11418;48.118;9.992;2023-04-09T03:00:47;3.10;99.90
22503;DHT22;11418;48.118;9.992;2023-04-09T03:04:47;3.20;99.90
22503;DHT22;11418;48.118;9.992;2023-04-09T03:08:47;2.90;99.90
22503;DHT22;11418;48.118;9.992;2023-04-09T03:12:48;2.70;99.90
22503;DHT22;11418;48.118;9.992;2023-04-09T03:16:48;2.60;99.90
22503;DHT22;11418;48.118;9.992;2023-04-09T03:20:49;2.40;99.90
22503;DHT22;11418;48.118;9.992;2023-04-09T03:24:49;2.50;99.90
22503;DHT22;11418;48.118;9.992;2023-04-09T03:28:50;2.60;99.90
22503;DHT22;11418;48.118;9.992;2023-04-09T03:32:50;2.80;99.90
22503;DHT22;11418;48.118;9.992;2023-04-09T03:36:51;2.60;99.90
22503;DHT22;11418;48.118;9.992;2023-04-09T03:40:51;2.70;99.90
22503;DHT22;11418;48.118;9.992;2023-04-09T03:44:52;2.80;99.90
22503;DHT22;11418;48.118;9.992;2023-04-09T03:48:52;2.90;99.90
22503;DHT22;11418;48.118;9.992;2023-04-09T03:52:53;3.00;99.90
22503;DHT22;11418;48.118;9.992;2023-04-09T03:56:53;3.00;99.90
22503;DHT22;11418;48.118;9.992;2023-04-09T04:00:54;3.10;99.90
22503;DHT22;11418;48.118;9.992;2023-04-09T04:04:54;3.20;99.90
22503;DHT22;11418;48.118;9.992;2023-04-09T04:08:55;2.80;99.90
22503;DHT22;11418;48.118;9.992;2023-04-09T04:12:55;2.50;99.90
22503;DHT22;11418;48.118;9.992;2023-04-09T04:16:56;2.30;99.90
22503;DHT22;11418;48.118;9.992;2023-04-09T04:20:56;2.00;99.90
22503;DHT22;11418;48.118;9.992;2023-04-09T04:24:57;1.90;99.90
22503;DHT22;11418;48.118;9.992;2023-04-09T04:28:57;1.70;99.90
22503;DHT22;11418;48.118;9.992;2023-04-09T04:32:58;1.50;99.90
22503;DHT22;11418;48.118;9.992;2023-04-09T04:36:58;1.40;99.90
22503;DHT22;11418;48.118;9.992;2023-04-09T04:40:58;1.20;99.90
22503;DHT22;11418;48.118;9.992;2023-04-09T04:44:59;1.00;99.90
22503;DHT22;11418;48.118;9.992;2023-04-09T04:48:59;1.10;99.90
22503;DHT22;11418;48.118;9.992;2023-04-09T04:53:00;1.10;99.90
22503;DHT22;11418;48.118;9.992;2023-04-09T04:57:01;1.00;99.90
22503;DHT22;11418;48.118;9.992;2023-04-09T05:01:01;1.00;99.90
22503;DHT22;11418;48.118;9.992;2023-04-09T05:05:01;1.50;99.90
22503;DHT22;11418;48.118;9.992;2023-04-09T05:09:02;1.90;99.90
22503;DHT22;11418;48.118;9.992;2023-04-09T05:13:02;1.80;99.90
22503;DHT22;11418;48.118;9.992;2023-04-09T05:17:03;1.80;99.90
22503;DHT22;11418;48.118;9.992;2023-04-09T05:21:04;2.20;99.90
22503;DHT22;11418;48.118;9.992;2023-04-09T05:25:04;2.20;99.90
22503;DHT22;11418;48.118;9.992;2023-04-09T05:29:05;2.50;99.90
22503;DHT22;11418;48.118;9.992;2023-04-09T05:33:05;2.60;99.90
22503;DHT22;11418;48.118;9.992;2023-04-09T05:37:06;3.20;99.90
22503;DHT22;11418;48.118;9.992;2023-04-09T05:41:06;3.10;99.90
22503;DHT22;11418;48.118;9.992;2023-04-09T05:45:07;3.20;99.90
22503;DHT22;11418;48.118;9.992;2023-04-09T05:49:08;3.20;99.90
22503;DHT22;11418;48.118;9.992;2023-04-09T05:53:08;3.50;99.90
22503;DHT22;11418;48.118;9.992;2023-04-09T05:57:09;3.50;99.90
22503;DHT22;11418;48.118;9.992;2023-04-09T06:01:09;3.90;99.90
22503;DHT22;11418;48.118;9.992;2023-04-09T06:05:10;4.00;99.90
22503;DHT22;11418;48.118;9.992;2023-04-09T06:09:11;4.30;99.90
22503;DHT22;11418;48.118;9.992;2023-04-09T06:13:11;4.60;99.90
22503;DHT22;11418;48.118;9.992;2023-04-09T06:17:12;4.90;99.90
22503;DHT22;11418;48.118;9.992;2023-04-09T06:21:12;4.90;99.90
22503;DHT22;11418;48.118;9.992;2023-04-09T06:25:13;5.00;99.90
22503;DHT22;11418;48.118;9.992;2023-04-09T06:29:14;4.80;99.90
22503;DHT22;11418;48.118;9.992;2023-04-09T06:33:14;4.80;99.90
22503;DHT22;11418;48.118;9.992;2023-04-09T06:37:15;5.00;99.90
22503;DHT22;11418;48.118;9.992;2023-04-09T06:41:15;5.00;99.90
22503;DHT22;11418;48.118;9.992;2023-04-09T06:45:16;5.40;99.90
22503;DHT22;11418;48.118;9.992;2023-04-09T06:49:16;5.60;99.90
22503;DHT22;11418;48.118;9.992;2023-04-09T06:53:17;5.70;99.90
22503;DHT22;11418;48.118;9.992;2023-04-09T06:57:17;5.70;99.90
22503;DHT22;11418;48.118;9.992;2023-04-09T07:01:18;6.00;99.90
22503;DHT22;11418;48.118;9.992;2023-04-09T07:05:19;6.30;99.90
22503;DHT22;11418;48.118;9.992;2023-04-09T07:09:19;6.70;99.90
22503;DHT22;11418;48.118;9.992;2023-04-09T07:13:20;7.00;99.90
22503;DHT22;11418;48.118;9.992;2023-04-09T07:17:20;6.80;99.90
22503;DHT22;11418;48.118;9.992;2023-04-09T07:21:21;6.30;99.90
22503;DHT22;11418;48.118;9.992;2023-04-09T07:25:21;6.10;99.90
22503;DHT22;11418;48.118;9.992;2023-04-09T07:29:22;6.50;99.90
22503;DHT22;11418;48.118;9.992;2023-04-09T07:33:22;6.70;99.90
22503;DHT22;11418;48.118;9.992;2023-04-09T07:37:23;7.10;99.90
22503;DHT22;11418;48.118;9.992;2023-04-09T07:41:23;7.40;99.90
22503;DHT22;11418;48.118;9.992;2023-04-09T07:45:23;7.20;99.90
22503;DHT22;11418;48.118;9.992;2023-04-09T07:49:24;6.30;99.90
22503;DHT22;11418;48.118;9.992;2023-04-09T07:53:25;6.00;99.90
22503;DHT22;11418;48.118;9.992;2023-04-09T07:57:25;6.30;99.90
22503;DHT22;11418;48.118;9.992;2023-04-09T08:01:26;6.40;99.90
22503;DHT22;11418;48.118;9.992;2023-04-09T08:05:27;6.50;99.90
22503;DHT22;11418;48.118;9.992;2023-04-09T08:09:28;6.70;99.90
22503;DHT22;11418;48.118;9.992;2023-04-09T08:13:28;7.10;99.90
22503;DHT22;11418;48.118;9.992;2023-04-09T08:17:28;8.10;99.90
22503;DHT22;11418;48.118;9.992;2023-04-09T08:21:30;8.60;99.90
22503;DHT22;11418;48.118;9.992;2023-04-09T08:25:31;8.40;99.90
22503;DHT22;11418;48.118;9.992;2023-04-09T08:29:31;8.40;99.90
22503;DHT22;11418;48.118;9.992;2023-04-09T08:33:33;9.00;99.90
22503;DHT22;11418;48.118;9.992;2023-04-09T08:37:34;9.80;99.90
22503;DHT22;11418;48.118;9.992;2023-04-09T08:41:34;10.10;99.90
22503;DHT22;11418;48.118;9.992;2023-04-09T08:45:38;9.50;99.90
22503;DHT22;11418;48.118;9.992;2023-04-09T08:49:39;8.70;99.90
22503;DHT22;11418;48.118;9.992;2023-04-09T08:53:59;8.70;99.90
22503;DHT22;11418;48.118;9.992;2023-04-09T09:02:07;8.20;99.90
22503;DHT22;11418;48.118;9.992;2023-04-09T09:06:13;7.90;99.90
22503;DHT22;11418;48.118;9.992;2023-04-09T09:10:19;8.60;99.90
22503;DHT22;11418;48.118;9.992;2023-04-09T09:14:20;8.60;99.90
22503;DHT22;11418;48.118;9.992;2023-04-09T09:18:42;9.20;99.90
22503;DHT22;11418;48.118;9.992;2023-04-09T09:22:48;9.70;99.90
22503;DHT22;11418;48.118;9.992;2023-04-09T09:26:49;10.20;99.90
22503;DHT22;11418;48.118;9.992;2023-04-09T09:30:49;10.40;99.90
22503;DHT22;11418;48.118;9.992;2023-04-09T09:34:57;11.40;99.90
22503;DHT22;11418;48.118;9.992;2023-04-09T09:38:58;11.90;99.90
22503;DHT22;11418;48.118;9.992;2023-04-09T09:43:02;12.00;99.90
22503;DHT22;11418;48.118;9.992;2023-04-09T09:47:03;11.30;99.90
22503;DHT22;11418;48.118;9.992;2023-04-09T09:51:08;10.90;99.90
22503;DHT22;11418;48.118;9.992;2023-04-09T09:55:09;11.00;99.90
22503;DHT22;11418;48.118;9.992;2023-04-09T09:59:19;11.30;99.90
22503;DHT22;11418;48.118;9.992;2023-04-09T10:03:26;11.70;99.90
22503;DHT22;11418;48.118;9.992;2023-04-09T10:07:27;11.90;99.90
22503;DHT22;11418;48.118;9.992;2023-04-09T10:11:28;10.90;99.90
22503;DHT22;11418;48.118;9.992;2023-04-09T10:15:28;10.20;99.90
22503;DHT22;11418;48.118;9.992;2023-04-09T10:19:30;10.70;99.90
22503;DHT22;11418;48.118;9.992;2023-04-09T10:23:41;11.10;99.90
22503;DHT22;11418;48.118;9.992;2023-04-09T10:27:42;11.70;99.90
22503;DHT22;11418;48.118;9.992;2023-04-09T10:32:04;11.70;99.90
22503;DHT22;11418;48.118;9.992;2023-04-09T10:36:10;12.10;99.90
22503;DHT22;11418;48.118;9.992;2023-04-09T10:40:17;12.80;99.90
22503;DHT22;11418;48.118;9.992;2023-04-09T10:44:19;11.80;99.90
22503;DHT22;11418;48.118;9.992;2023-04-09T10:48:19;10.90;99.90
22503;DHT22;11418;48.118;9.992;2023-04-09T10:52:21;10.90;99.90
22503;DHT22;11418;48.118;9.992;2023-04-09T10:56:29;11.70;99.90
22503;DHT22;11418;48.118;9.992;2023-04-09T11:00:29;10.90;99.90
22503;DHT22;11418;48.118;9.992;2023-04-09T11:04:34;10.80;99.90
22503;DHT22;11418;48.118;9.992;2023-04-09T11:08:38;12.40;99.90
22503;DHT22;11418;48.118;9.992;2023-04-09T11:12:38;14.40;99.90
22503;DHT22;11418;48.118;9.992;2023-04-09T11:16:39;14.70;99.90
22503;DHT22;11418;48.118;9.992;2023-04-09T11:20:39;14.40;99.90
22503;DHT22;11418;48.118;9.992;2023-04-09T11:24:40;14.80;98.40
22503;DHT22;11418;48.118;9.992;2023-04-09T11:28:41;14.80;97.80
22503;DHT22;11418;48.118;9.992;2023-04-09T11:32:42;15.70;98.30
22503;DHT22;11418;48.118;9.992;2023-04-09T11:36:42;15.30;95.10
22503;DHT22;11418;48.118;9.992;2023-04-09T11:40:47;14.90;94.40
22503;DHT22;11418;48.118;9.992;2023-04-09T11:44:48;14.70;93.60
22503;DHT22;11418;48.118;9.992;2023-04-09T11:48:49;14.10;93.80
22503;DHT22;11418;48.118;9.992;2023-04-09T11:52:50;14.60;96.50
22503;DHT22;11418;48.118;9.992;2023-04-09T11:56:50;14.60;95.90
22503;DHT22;11418;48.118;9.992;2023-04-09T12:00:56;12.80;99.50
22503;DHT22;11418;48.118;9.992;2023-04-09T12:05:01;14.00;95.50
22503;DHT22;11418;48.118;9.992;2023-04-09T12:09:01;14.20;94.50
22503;DHT22;11418;48.118;9.992;2023-04-09T12:13:04;13.70;95.30
22503;DHT22;11418;48.118;9.992;2023-04-09T12:17:07;13.70;96.90
22503;DHT22;11418;48.118;9.992;2023-04-09T12:21:07;14.80;96.70
22503;DHT22;11418;48.118;9.992;2023-04-09T12:25:08;17.10;94.30
22503;DHT22;11418;48.118;9.992;2023-04-09T12:29:08;16.30;97.20
22503;DHT22;11418;48.118;9.992;2023-04-09T12:33:08;17.70;89.70
22503;DHT22;11418;48.118;9.992;2023-04-09T12:37:09;17.70;79.80
22503;DHT22;11418;48.118;9.992;2023-04-09T12:41:10;16.00;88.90
22503;DHT22;11418;48.118;9.992;2023-04-09T12:45:12;15.80;88.10
22503;DHT22;11418;48.118;9.992;2023-04-09T12:49:12;15.40;91.30
22503;DHT22;11418;48.118;9.992;2023-04-09T12:53:13;14.90;90.90
22503;DHT22;11418;48.118;9.992;2023-04-09T12:57:14;14.80;90.60
22503;DHT22;11418;48.118;9.992;2023-04-09T13:01:14;14.90;92.20
22503;DHT22;11418;48.118;9.992;2023-04-09T13:05:15;17.70;86.00
22503;DHT22;11418;48.118;9.992;2023-04-09T13:09:15;18.30;79.30
22503;DHT22;11418;48.118;9.992;2023-04-09T13:13:16;15.90;87.50
22503;DHT22;11418;48.118;9.992;2023-04-09T13:17:16;15.10;89.80
22503;DHT22;11418;48.118;9.992;2023-04-09T13:21:17;15.80;91.30
22503;DHT22;11418;48.118;9.992;2023-04-09T13:25:18;17.00;85.10
22503;DHT22;11418;48.118;9.992;2023-04-09T13:29:18;16.00;90.30
22503;DHT22;11418;48.118;9.992;2023-04-09T13:33:19;13.90;92.40
22503;DHT22;11418;48.118;9.992;2023-04-09T13:37:19;12.70;95.10
22503;DHT22;11418;48.118;9.992;2023-04-09T13:41:20;13.10;94.30
22503;DHT22;11418;48.118;9.992;2023-04-09T13:45:26;16.10;91.50
22503;DHT22;11418;48.118;9.992;2023-04-09T13:49:27;17.00;84.00
22503;DHT22;11418;48.118;9.992;2023-04-09T13:53:29;15.10;89.70
22503;DHT22;11418;48.118;9.992;2023-04-09T13:57:29;14.80;90.10
22503;DHT22;11418;48.118;9.992;2023-04-09T14:01:30;17.50;86.60
22503;DHT22;11418;48.118;9.992;2023-04-09T14:05:31;19.30;82.70
22503;DHT22;11418;48.118;9.992;2023-04-09T14:09:34;20.80;73.80
22503;DHT22;11418;48.118;9.992;2023-04-09T14:13:35;19.50;80.60
22503;DHT22;11418;48.118;9.992;2023-04-09T14:17:35;16.80;88.60
22503;DHT22;11418;48.118;9.992;2023-04-09T14:21:36;14.10;89.70
22503;DHT22;11418;48.118;9.992;2023-04-09T14:25:36;12.60;93.00
22503;DHT22;11418;48.118;9.992;2023-04-09T14:29:37;12.10;94.20
22503;DHT22;11418;48.118;9.992;2023-04-09T14:33:37;11.80;95.60
22503;DHT22;11418;48.118;9.992;2023-04-09T14:37:38;12.50;94.30
22503;DHT22;11418;48.118;9.992;2023-04-09T14:41:40;15.20;89.80
22503;DHT22;11418;48.118;9.992;2023-04-09T14:45:40;17.80;79.90
22503;DHT22;11418;48.118;9.992;2023-04-09T14:49:41;18.90;75.80
22503;DHT22;11418;48.118;9.992;2023-04-09T14:53:41;19.90;71.10
22503;DHT22;11418;48.118;9.992;2023-04-09T14:57:42;20.50;70.30
22503;DHT22;11418;48.118;9.992;2023-04-09T15:05:45;17.90;74.50
22503;DHT22;11418;48.118;9.992;2023-04-09T15:09:47;15.80;79.60
22503;DHT22;11418;48.118;9.992;2023-04-09T15:13:47;14.20;84.00
22503;DHT22;11418;48.118;9.992;2023-04-09T15:17:48;13.70;91.60
22503;DHT22;11418;48.118;9.992;2023-04-09T15:21:48;13.00;91.60
22503;DHT22;11418;48.118;9.992;2023-04-09T15:25:49;12.10;92.10
22503;DHT22;11418;48.118;9.992;2023-04-09T15:29:49;11.50;94.90
22503;DHT22;11418;48.118;9.992;2023-04-09T15:33:51;10.90;95.10
22503;DHT22;11418;48.118;9.992;2023-04-09T15:37:51;12.40;95.10
22503;DHT22;11418;48.118;9.992;2023-04-09T15:41:51;15.60;91.20
22503;DHT22;11418;48.118;9.992;2023-04-09T15:45:52;17.50;80.90
22503;DHT22;11418;48.118;9.992;2023-04-09T15:49:52;16.10;81.00
22503;DHT22;11418;48.118;9.992;2023-04-09T15:53:54;15.10;89.20
22503;DHT22;11418;48.118;9.992;2023-04-09T15:57:54;16.90;80.70
22503;DHT22;11418;48.118;9.992;2023-04-09T16:01:55;17.30;82.30
22503;DHT22;11418;48.118;9.992;2023-04-09T16:05:55;16.30;82.40
22503;DHT22;11418;48.118;9.992;2023-04-09T16:09:56;15.20;83.10
22503;DHT22;11418;48.118;9.992;2023-04-09T16:13:56;13.40;87.30
22503;DHT22;11418;48.118;9.992;2023-04-09T16:17:58;12.40;90.60
22503;DHT22;11418;48.118;9.992;2023-04-09T16:21:58;11.90;90.60
22503;DHT22;11418;48.118;9.992;2023-04-09T16:25:59;11.80;91.30
22503;DHT22;11418;48.118;9.992;2023-04-09T16:29:59;11.70;91.50
22503;DHT22;11418;48.118;9.992;2023-04-09T16:34:00;11.60;92.30
22503;DHT22;11418;48.118;9.992;2023-04-09T16:38:00;11.60;93.40
22503;DHT22;11418;48.118;9.992;2023-04-09T16:42:01;11.10;95.20
22503;DHT22;11418;48.118;9.992;2023-04-09T16:46:03;10.80;96.10
22503;DHT22;11418;48.118;9.992;2023-04-09T16:50:05;10.70;95.10
22503;DHT22;11418;48.118;9.992;2023-04-09T16:54:09;10.50;95.80
22503;DHT22;11418;48.118;9.992;2023-04-09T16:58:10;10.30;97.30
22503;DHT22;11418;48.118;9.992;2023-04-09T17:02:10;10.10;97.70
22503;DHT22;11418;48.118;9.992;2023-04-09T17:06:11;9.90;98.20
22503;DHT22;11418;48.118;9.992;2023-04-09T17:10:11;9.80;98.20
22503;DHT22;11418;48.118;9.992;2023-04-09T17:14:11;9.60;98.50
22503;DHT22;11418;48.118;9.992;2023-04-09T17:18:12;9.60;99.00
22503;DHT22;11418;48.118;9.992;2023-04-09T17:22:12;9.30;99.90
22503;DHT22;11418;48.118;9.992;2023-04-09T17:26:13;9.20;99.90
22503;DHT22;11418;48.118;9.992;2023-04-09T17:30:14;9.10;99.90
22503;DHT22;11418;48.118;9.992;2023-04-09T17:34:15;9.00;99.90
22503;DHT22;11418;48.118;9.992;2023-04-09T17:38:15;8.80;99.90
22503;DHT22;11418;48.118;9.992;2023-04-09T17:42:20;8.60;99.90
22503;DHT22;11418;48.118;9.992;2023-04-09T17:46:22;8.60;99.90
22503;DHT22;11418;48.118;9.992;2023-04-09T17:50:23;8.50;99.90
22503;DHT22;11418;48.118;9.992;2023-04-09T17:54:23;8.30;99.90
22503;DHT22;11418;48.118;9.992;2023-04-09T17:58:24;8.00;99.90
22503;DHT22;11418;48.118;9.992;2023-04-09T18:02:26;7.80;99.90
22503;DHT22;11418;48.118;9.992;2023-04-09T18:06:26;7.60;99.90
22503;DHT22;11418;48.118;9.992;2023-04-09T18:10:27;7.40;99.90
22503;DHT22;11418;48.118;9.992;2023-04-09T18:14:28;7.20;99.90
22503;DHT22;11418;48.118;9.992;2023-04-09T18:18:31;7.00;99.90
22503;DHT22;11418;48.118;9.992;2023-04-09T18:22:32;6.80;99.90
22503;DHT22;11418;48.118;9.992;2023-04-09T18:26:34;6.50;99.90
22503;DHT22;11418;48.118;9.992;2023-04-09T18:30:35;6.50;99.90
22503;DHT22;11418;48.118;9.992;2023-04-09T18:34:38;6.10;99.90
22503;DHT22;11418;48.118;9.992;2023-04-09T18:38:38;5.60;99.90
22503;DHT22;11418;48.118;9.992;2023-04-09T18:42:39;5.80;99.90
22503;DHT22;11418;48.118;9.992;2023-04-09T18:46:40;5.80;99.90
22503;DHT22;11418;48.118;9.992;2023-04-09T18:50:40;5.60;99.90
22503;DHT22;11418;48.118;9.992;2023-04-09T18:54:41;5.60;99.90
22503;DHT22;11418;48.118;9.992;2023-04-09T18:58:42;5.40;99.90
22503;DHT22;11418;48.118;9.992;2023-04-09T19:02:42;5.20;99.90
22503;DHT22;11418;48.118;9.992;2023-04-09T19:06:43;5.30;99.90
22503;DHT22;11418;48.118;9.992;2023-04-09T19:10:45;5.30;99.90
22503;DHT22;11418;48.118;9.992;2023-04-09T19:14:46;5.30;99.90
22503;DHT22;11418;48.118;9.992;2023-04-09T19:18:47;5.20;99.90
22503;DHT22;11418;48.118;9.992;2023-04-09T19:22:48;5.10;99.90
22503;DHT22;11418;48.118;9.992;2023-04-09T19:26:48;5.10;99.90
22503;DHT22;11418;48.118;9.992;2023-04-09T19:30:50;4.90;99.90
22503;DHT22;11418;48.118;9.992;2023-04-09T19:34:51;4.70;99.90
22503;DHT22;11418;48.118;9.992;2023-04-09T19:38:52;4.70;99.90
22503;DHT22;11418;48.118;9.992;2023-04-09T19:42:52;4.50;99.90
22503;DHT22;11418;48.118;9.992;2023-04-09T19:46:52;4.20;99.90
22503;DHT22;11418;48.118;9.992;2023-04-09T19:50:53;4.40;99.90
22503;DHT22;11418;48.118;9.992;2023-04-09T19:54:54;4.20;99.90
22503;DHT22;11418;48.118;9.992;2023-04-09T19:58:55;4.00;99.90
22503;DHT22;11418;48.118;9.992;2023-04-09T20:02:55;3.80;99.90
22503;DHT22;11418;48.118;9.992;2023-04-09T20:06:56;3.70;99.90
22503;DHT22;11418;48.118;9.992;2023-04-09T20:10:56;3.70;99.90
22503;DHT22;11418;48.118;9.992;2023-04-09T20:14:57;3.60;99.90
22503;DHT22;11418;48.118;9.992;2023-04-09T20:18:57;3.70;99.90
22503;DHT22;11418;48.118;9.992;2023-04-09T20:22:58;4.20;99.90
22503;DHT22;11418;48.118;9.992;2023-04-09T20:26:58;4.20;99.90
22503;DHT22;11418;48.118;9.992;2023-04-09T20:31:00;4.40;99.90
22503;DHT22;11418;48.118;9.992;2023-04-09T20:35:01;4.50;99.90
22503;DHT22;11418;48.118;9.992;2023-04-09T20:39:01;4.60;99.90
22503;DHT22;11418;48.118;9.992;2023-04-09T20:43:02;4.60;99.90
22503;DHT22;11418;48.118;9.992;2023-04-09T20:47:03;4.80;99.90
22503;DHT22;11418;48.118;9.992;2023-04-09T20:51:07;5.00;99.90
22503;DHT22;11418;48.118;9.992;2023-04-09T20:55:07;4.90;99.90
22503;DHT22;11418;48.118;9.992;2023-04-09T20:59:08;4.80;99.90
22503;DHT22;11418;48.118;9.992;2023-04-09T21:03:08;5.00;99.90
22503;DHT22;11418;48.118;9.992;2023-04-09T21:07:09;5.00;99.90
22503;DHT22;11418;48.118;9.992;2023-04-09T21:11:10;4.60;99.90
22503;DHT22;11418;48.118;9.992;2023-04-09T21:15:10;4.40;99.90
22503;DHT22;11418;48.118;9.992;2023-04-09T21:19:11;4.30;99.90
22503;DHT22;11418;48.118;9.992;2023-04-09T21:23:11;4.20;99.90
22503;DHT22;11418;48.118;9.992;2023-04-09T21:27:12;4.60;99.90
22503;DHT22;11418;48.118;9.992;2023-04-09T21:31:14;4.30;99.90
22503;DHT22;11418;48.118;9.992;2023-04-09T21:35:15;4.00;99.90
22503;DHT22;11418;48.118;9.992;2023-04-09T21:39:15;4.10;99.90
22503;DHT22;11418;48.118;9.992;2023-04-09T21:43:16;4.40;99.90
22503;DHT22;11418;48.118;9.992;2023-04-09T21:47:16;4.20;99.90
22503;DHT22;11418;48.118;9.992;2023-04-09T21:51:16;4.10;99.90
22503;DHT22;11418;48.118;9.992;2023-04-09T21:55:17;4.20;99.90
22503;DHT22;11418;48.118;9.992;2023-04-09T21:59:17;4.00;99.90
22503;DHT22;11418;48.118;9.992;2023-04-09T22:03:18;3.60;99.90
22503;DHT22;11418;48.118;9.992;2023-04-09T22:07:18;3.40;99.90
22503;DHT22;11418;48.118;9.992;2023-04-09T22:11:19;3.00;99.90
22503;DHT22;11418;48.118;9.992;2023-04-09T22:15:22;2.90;99.90
22503;DHT22;11418;48.118;9.992;2023-04-09T22:19:28;3.00;99.90
22503;DHT22;11418;48.118;9.992;2023-04-09T22:23:29;2.90;99.90
22503;DHT22;11418;48.118;9.992;2023-04-09T22:27:29;3.10;99.90
22503;DHT22;11418;48.118;9.992;2023-04-09T22:31:29;2.90;99.90
22503;DHT22;11418;48.118;9.992;2023-04-09T22:35:30;2.50;99.90
22503;DHT22;11418;48.118;9.992;2023-04-09T22:39:31;2.20;99.90
22503;DHT22;11418;48.118;9.992;2023-04-09T22:43:31;2.10;99.90
22503;DHT22;11418;48.118;9.992;2023-04-09T22:47:32;1.90;99.90
22503;DHT22;11418;48.118;9.992;2023-04-09T22:51:33;1.80;99.90
22503;DHT22;11418;48.118;9.992;2023-04-09T22:55:36;1.80;99.90
22503;DHT22;11418;48.118;9.992;2023-04-09T22:59:37;1.90;99.90
22503;DHT22;11418;48.118;9.992;2023-04-09T23:03:37;1.80;99.90
22503;DHT22;11418;48.118;9.992;2023-04-09T23:07:38;1.70;99.90
22503;DHT22;11418;48.118;9.992;2023-04-09T23:11:38;1.80;99.90
22503;DHT22;11418;48.118;9.992;2023-04-09T23:15:39;1.60;99.90
22503;DHT22;11418;48.118;9.992;2023-04-09T23:19:40;1.50;99.90
22503;DHT22;11418;48.118;9.992;2023-04-09T23:23:40;1.30;99.90
22503;DHT22;11418;48.118;9.992;2023-04-09T23:27:41;1.20;99.90
22503;DHT22;11418;48.118;9.992;2023-04-09T23:31:41;1.30;99.90
22503;DHT22;11418;48.118;9.992;2023-04-09T23:35:42;1.10;99.90
22503;DHT22;11418;48.118;9.992;2023-04-09T23:39:42;1.00;99.90
22503;DHT22;11418;48.118;9.992;2023-04-09T23:43:43;0.90;99.90
22503;DHT22;11418;48.118;9.992;2023-04-09T23:47:43;1.10;99.90
22503;DHT22;11418;48.118;9.992;2023-04-09T23:51:44;1.10;99.90
22503;DHT22;11418;48.118;9.992;2023-04-09T23:55:45;1.00;99.90
22503;DHT22;11418;48.118;9.992;2023-04-09T23:59:47;0.90;99.90
